This demonstration page uses our WeatherBlox Daily Observations layout. Learn more.

Left ArrowRight Arrow

Hourly Observations for July 24, 2020

Temp ( °F °C ) Dew Point ( °F °C ) Humidity (%) Winds ( mph kmh ) Pressure ( in mb ) Visibility ( mi km ) Precip ( " mm )
12:54 am 00:54 Clear 80 26.7 73 22.8 79 79 SSE 13 20 29.98 1015 10 16.0934 0 0
1:54 am 01:54 Clear 78 25.6 73 22.8 85 85 SSE 9 15 29.99 1016 10 16.0934 0 0
2:54 am 02:54 Clear 77 25 73 22.8 88 88 S 9 15 30 1016 10 16.0934 0 0
3:54 am 03:54 Clear 76 24.4 73 22.8 91 91 S 9 15 29.99 1016 9 14.48406 0 0
4:54 am 04:54 Clear 76 24.4 72 22.2 88 88 S 8 13 29.99 1016 9 14.48406 0 0
5:54 am 05:54 Clear 75 23.9 71 21.7 88 88 SSE 8 13 30 1016 10 16.0934 0 0
6:54 am 06:54 Sunny 76 24.4 71 21.7 85 85 SSE 10 17 30 1016 9 14.48406 0 0
7:54 am 07:54 Sunny 79 26.1 71 21.7 77 77 S 10 17 30 1016 9 14.48406 0 0
8:54 am 08:54 Sunny 79 26.1 72 22.2 79 79 S 12 19 30.01 1016 9 14.48406 0 0
9:54 am 09:54 Sunny 83 28.3 73 22.8 72 72 S 13 20 30.01 1016 9 14.48406 0 0
10:54 am 10:54 Sunny 86 30 75 23.9 70 70 S 14 22 30 1016 9 14.48406 0 0
11:54 am 11:54 Partly Cloudy 87 30.6 73 22.8 63 63 S 15 24 30 1016 9 14.48406 0 0
12:54 pm 12:54 Mostly Cloudy 88 31.1 73 22.8 61 61 SSE 16 26 29.99 1016 9 14.48406 0 0
1:54 pm 13:54 Partly Cloudy 89 31.7 74 23.3 61 61 S 16 26 29.98 1015 9 14.48406 0 0
2:54 pm 14:54 Mostly Cloudy 89 31.7 74 23.3 61 61 S 18 30 29.97 1015 9 14.48406 0 0
3:54 pm 15:54 Mostly Sunny 91 32.8 74 23.3 57 57 SSE 20 31 29.95 1014 9 14.48406 0 0
4:54 pm 16:54 Sunny 90 32.2 73 22.8 58 58 S 16 26 29.95 1014 9 14.48406 0 0
5:54 pm 17:54 Sunny 90 32.2 73 22.8 58 58 SSE 17 28 29.93 1014 9 14.48406 0 0
6:54 pm 18:54 Partly Cloudy 88 31.1 75 23.9 66 66 SSE 18 30 29.91 1013 9 14.48406 0 0
7:54 pm 19:54 Sunny 85 29.4 72 22.2 65 65 SSE 17 28 29.91 1013 9 14.48406 0 0
8:54 pm 20:54 Clear 84 28.9 72 22.2 67 67 SSE 15 24 29.89 1012 10 16.0934 0 0
9:54 pm 21:54 Clear 83 28.3 73 22.8 72 72 SSE 12 19 29.94 1014 10 16.0934 0 0
10:54 pm 22:54 Clear 83 28.3 73 22.8 72 72 SSE 13 20 29.95 1014 10 16.0934 0 0
11:54 pm 23:54 Clear 81 27.2 72 22.2 74 74 SSE 13 20 29.95 1014 10 16.0934 0 0

Powered by AerisWeather